sensor_id;sensor_type;location;lat;lon;timestamp;temperature;humidity
55173;DHT22;41061;52.822;6.860;2022-12-18T00:00:58;-2.80;99.90
55173;DHT22;41061;52.822;6.860;2022-12-18T00:03:24;-2.80;99.90
55173;DHT22;41061;52.822;6.860;2022-12-18T00:05:51;-2.90;99.90
55173;DHT22;41061;52.822;6.860;2022-12-18T00:08:18;-2.90;99.90
55173;DHT22;41061;52.822;6.860;2022-12-18T00:10:44;-2.90;99.90
55173;DHT22;41061;52.822;6.860;2022-12-18T00:13:10;-2.90;99.90
55173;DHT22;41061;52.822;6.860;2022-12-18T00:15:37;-2.90;99.90
55173;DHT22;41061;52.822;6.860;2022-12-18T00:18:03;-3.00;99.90
55173;DHT22;41061;52.822;6.860;2022-12-18T00:20:29;-3.00;99.90
55173;DHT22;41061;52.822;6.860;2022-12-18T00:22:55;-2.90;99.90
55173;DHT22;41061;52.822;6.860;2022-12-18T00:25:22;-2.90;99.90
55173;DHT22;41061;52.822;6.860;2022-12-18T00:27:47;-3.00;99.90
55173;DHT22;41061;52.822;6.860;2022-12-18T00:30:14;-3.00;99.90
55173;DHT22;41061;52.822;6.860;2022-12-18T00:32:40;-3.00;99.90
55173;DHT22;41061;52.822;6.860;2022-12-18T00:35:06;-3.00;99.90
55173;DHT22;41061;52.822;6.860;2022-12-18T00:37:33;-3.00;99.90
55173;DHT22;41061;52.822;6.860;2022-12-18T00:39:59;-3.00;99.90
55173;DHT22;41061;52.822;6.860;2022-12-18T00:42:25;-3.00;99.90
55173;DHT22;41061;52.822;6.860;2022-12-18T00:45:10;-3.00;99.90
55173;DHT22;41061;52.822;6.860;2022-12-18T00:47:35;-3.00;99.90
55173;DHT22;41061;52.822;6.860;2022-12-18T00:50:01;-3.10;99.90
55173;DHT22;41061;52.822;6.860;2022-12-18T00:52:27;-3.10;99.90
55173;DHT22;41061;52.822;6.860;2022-12-18T00:54:52;-3.10;99.90
55173;DHT22;41061;52.822;6.860;2022-12-18T00:57:18;-3.10;99.90
55173;DHT22;41061;52.822;6.860;2022-12-18T00:59:43;-3.20;99.90
55173;DHT22;41061;52.822;6.860;2022-12-18T01:02:09;-3.20;99.90
55173;DHT22;41061;52.822;6.860;2022-12-18T01:04:35;-3.30;99.90
55173;DHT22;41061;52.822;6.860;2022-12-18T01:07:00;-3.30;99.90
55173;DHT22;41061;52.822;6.860;2022-12-18T01:09:26;-3.30;99.90
55173;DHT22;41061;52.822;6.860;2022-12-18T01:11:52;-3.50;99.90
55173;DHT22;41061;52.822;6.860;2022-12-18T01:14:18;-3.50;99.90
55173;DHT22;41061;52.822;6.860;2022-12-18T01:16:43;-3.50;99.90
55173;DHT22;41061;52.822;6.860;2022-12-18T01:19:09;-3.50;99.90
55173;DHT22;41061;52.822;6.860;2022-12-18T01:21:35;-3.60;99.90
55173;DHT22;41061;52.822;6.860;2022-12-18T01:24:01;-3.60;99.90
55173;DHT22;41061;52.822;6.860;2022-12-18T01:26:27;-3.70;99.90
55173;DHT22;41061;52.822;6.860;2022-12-18T01:28:55;-3.70;99.90
55173;DHT22;41061;52.822;6.860;2022-12-18T01:31:23;-3.80;99.90
55173;DHT22;41061;52.822;6.860;2022-12-18T01:33:50;-3.80;99.90
55173;DHT22;41061;52.822;6.860;2022-12-18T01:36:27;-3.80;99.90
55173;DHT22;41061;52.822;6.860;2022-12-18T01:38:54;-3.80;99.90
55173;DHT22;41061;52.822;6.860;2022-12-18T01:41:23;-3.80;99.90
55173;DHT22;41061;52.822;6.860;2022-12-18T01:43:54;-3.90;99.90
55173;DHT22;41061;52.822;6.860;2022-12-18T01:46:25;-3.90;99.90
55173;DHT22;41061;52.822;6.860;2022-12-18T01:48:57;-4.00;99.90
55173;DHT22;41061;52.822;6.860;2022-12-18T01:51:23;-4.00;99.90
55173;DHT22;41061;52.822;6.860;2022-12-18T01:53:50;-4.10;99.90
55173;DHT22;41061;52.822;6.860;2022-12-18T01:56:18;-4.00;99.90
55173;DHT22;41061;52.822;6.860;2022-12-18T01:58:57;-4.10;99.90
55173;DHT22;41061;52.822;6.860;2022-12-18T02:01:24;-4.10;99.90
55173;DHT22;41061;52.822;6.860;2022-12-18T02:03:51;-4.10;99.90
55173;DHT22;41061;52.822;6.860;2022-12-18T02:19:55;-4.30;99.90
55173;DHT22;41061;52.822;6.860;2022-12-18T02:27:23;-4.40;99.90
55173;DHT22;41061;52.822;6.860;2022-12-18T02:29:54;-4.50;99.90
55173;DHT22;41061;52.822;6.860;2022-12-18T02:32:27;-4.50;99.90
55173;DHT22;41061;52.822;6.860;2022-12-18T02:34:56;-4.50;99.90
55173;DHT22;41061;52.822;6.860;2022-12-18T02:37:23;-4.50;99.90
55173;DHT22;41061;52.822;6.860;2022-12-18T02:39:52;-4.50;99.90
55173;DHT22;41061;52.822;6.860;2022-12-18T02:42:20;-4.60;99.90
55173;DHT22;41061;52.822;6.860;2022-12-18T02:44:48;-4.60;99.90
55173;DHT22;41061;52.822;6.860;2022-12-18T02:47:17;-4.60;99.90
55173;DHT22;41061;52.822;6.860;2022-12-18T02:52:31;-4.70;99.90
55173;DHT22;41061;52.822;6.860;2022-12-18T02:55:25;-4.70;99.90
55173;DHT22;41061;52.822;6.860;2022-12-18T02:57:54;-4.70;99.90
55173;DHT22;41061;52.822;6.860;2022-12-18T03:00:31;-4.80;99.90
55173;DHT22;41061;52.822;6.860;2022-12-18T03:02:59;-4.90;99.90
55173;DHT22;41061;52.822;6.860;2022-12-18T03:05:35;-4.90;99.90
55173;DHT22;41061;52.822;6.860;2022-12-18T03:08:06;-4.90;99.90
55173;DHT22;41061;52.822;6.860;2022-12-18T03:10:37;-4.90;99.90
55173;DHT22;41061;52.822;6.860;2022-12-18T03:13:07;-5.00;99.90
55173;DHT22;41061;52.822;6.860;2022-12-18T03:15:49;-5.00;99.90
55173;DHT22;41061;52.822;6.860;2022-12-18T03:18:17;-5.00;99.90
55173;DHT22;41061;52.822;6.860;2022-12-18T03:20:46;-5.00;99.90
55173;DHT22;41061;52.822;6.860;2022-12-18T03:23:16;-5.00;99.90
55173;DHT22;41061;52.822;6.860;2022-12-18T03:25:44;-5.10;99.90
55173;DHT22;41061;52.822;6.860;2022-12-18T03:28:14;-5.10;99.90
55173;DHT22;41061;52.822;6.860;2022-12-18T03:30:42;-5.10;99.90
55173;DHT22;41061;52.822;6.860;2022-12-18T03:33:14;-5.10;99.90
55173;DHT22;41061;52.822;6.860;2022-12-18T03:35:43;-5.10;99.90
55173;DHT22;41061;52.822;6.860;2022-12-18T03:38:10;-5.10;99.90
55173;DHT22;41061;52.822;6.860;2022-12-18T03:40:46;-5.10;99.90
55173;DHT22;41061;52.822;6.860;2022-12-18T03:46:13;-5.10;99.90
55173;DHT22;41061;52.822;6.860;2022-12-18T03:48:46;-5.10;99.90
55173;DHT22;41061;52.822;6.860;2022-12-18T03:52:02;-5.20;99.90
55173;DHT22;41061;52.822;6.860;2022-12-18T03:54:30;-5.20;99.90
55173;DHT22;41061;52.822;6.860;2022-12-18T03:57:02;-5.10;99.90
55173;DHT22;41061;52.822;6.860;2022-12-18T03:59:29;-5.20;99.90
55173;DHT22;41061;52.822;6.860;2022-12-18T04:01:56;-5.20;99.90
55173;DHT22;41061;52.822;6.860;2022-12-18T04:04:24;-5.20;99.90
55173;DHT22;41061;52.822;6.860;2022-12-18T04:06:50;-5.30;99.90
55173;DHT22;41061;52.822;6.860;2022-12-18T04:09:18;-5.30;99.90
55173;DHT22;41061;52.822;6.860;2022-12-18T04:11:45;-5.20;99.90
55173;DHT22;41061;52.822;6.860;2022-12-18T04:14:11;-5.30;99.90
55173;DHT22;41061;52.822;6.860;2022-12-18T04:16:37;-5.30;99.90
55173;DHT22;41061;52.822;6.860;2022-12-18T04:19:03;-5.30;99.90
55173;DHT22;41061;52.822;6.860;2022-12-18T04:21:29;-5.30;99.90
55173;DHT22;41061;52.822;6.860;2022-12-18T04:23:55;-5.30;99.90
55173;DHT22;41061;52.822;6.860;2022-12-18T04:26:20;-5.30;99.90
55173;DHT22;41061;52.822;6.860;2022-12-18T04:28:46;-5.30;99.90
55173;DHT22;41061;52.822;6.860;2022-12-18T04:31:12;-5.30;99.90
55173;DHT22;41061;52.822;6.860;2022-12-18T04:33:38;-5.30;99.90
55173;DHT22;41061;52.822;6.860;2022-12-18T04:36:04;-5.40;99.90
55173;DHT22;41061;52.822;6.860;2022-12-18T04:38:30;-5.30;99.90
55173;DHT22;41061;52.822;6.860;2022-12-18T04:40:55;-5.40;99.90
55173;DHT22;41061;52.822;6.860;2022-12-18T04:43:22;-5.40;99.90
55173;DHT22;41061;52.822;6.860;2022-12-18T04:45:47;-5.40;99.90
55173;DHT22;41061;52.822;6.860;2022-12-18T04:48:13;-5.40;99.90
55173;DHT22;41061;52.822;6.860;2022-12-18T04:50:39;-5.40;99.90
55173;DHT22;41061;52.822;6.860;2022-12-18T04:53:04;-5.40;99.90
55173;DHT22;41061;52.822;6.860;2022-12-18T04:55:30;-5.40;99.90
55173;DHT22;41061;52.822;6.860;2022-12-18T04:57:56;-5.40;99.90
55173;DHT22;41061;52.822;6.860;2022-12-18T05:00:22;-5.40;99.90
55173;DHT22;41061;52.822;6.860;2022-12-18T05:02:47;-5.50;99.90
55173;DHT22;41061;52.822;6.860;2022-12-18T05:05:13;-5.50;99.90
55173;DHT22;41061;52.822;6.860;2022-12-18T05:07:39;-5.50;99.90
55173;DHT22;41061;52.822;6.860;2022-12-18T05:10:08;-5.50;99.90
55173;DHT22;41061;52.822;6.860;2022-12-18T05:12:34;-5.50;99.90
55173;DHT22;41061;52.822;6.860;2022-12-18T05:15:20;-5.50;99.90
55173;DHT22;41061;52.822;6.860;2022-12-18T05:17:45;-5.50;99.90
55173;DHT22;41061;52.822;6.860;2022-12-18T05:20:11;-5.50;99.90
55173;DHT22;41061;52.822;6.860;2022-12-18T05:22:37;-5.50;99.90
55173;DHT22;41061;52.822;6.860;2022-12-18T05:25:03;-5.40;99.90
55173;DHT22;41061;52.822;6.860;2022-12-18T05:27:28;-5.50;99.90
55173;DHT22;41061;52.822;6.860;2022-12-18T05:29:54;-5.50;99.90
55173;DHT22;41061;52.822;6.860;2022-12-18T05:32:20;-5.50;99.90
55173;DHT22;41061;52.822;6.860;2022-12-18T05:34:45;-5.50;99.90
55173;DHT22;41061;52.822;6.860;2022-12-18T05:37:11;-5.50;99.90
55173;DHT22;41061;52.822;6.860;2022-12-18T05:39:36;-5.50;99.90
55173;DHT22;41061;52.822;6.860;2022-12-18T05:42:02;-5.50;99.90
55173;DHT22;41061;52.822;6.860;2022-12-18T05:44:28;-5.40;99.90
55173;DHT22;41061;52.822;6.860;2022-12-18T05:46:54;-5.50;99.90
55173;DHT22;41061;52.822;6.860;2022-12-18T05:49:19;-5.50;99.90
55173;DHT22;41061;52.822;6.860;2022-12-18T05:51:45;-5.50;99.90
55173;DHT22;41061;52.822;6.860;2022-12-18T05:54:11;-5.50;99.90
55173;DHT22;41061;52.822;6.860;2022-12-18T05:56:37;-5.40;99.90
55173;DHT22;41061;52.822;6.860;2022-12-18T05:59:02;-5.40;99.90
55173;DHT22;41061;52.822;6.860;2022-12-18T06:01:28;-5.40;99.90
55173;DHT22;41061;52.822;6.860;2022-12-18T06:03:55;-5.40;99.90
55173;DHT22;41061;52.822;6.860;2022-12-18T06:06:25;-5.40;99.90
55173;DHT22;41061;52.822;6.860;2022-12-18T06:08:53;-5.40;99.90
55173;DHT22;41061;52.822;6.860;2022-12-18T06:11:22;-5.40;99.90
55173;DHT22;41061;52.822;6.860;2022-12-18T06:13:55;-5.40;99.90
55173;DHT22;41061;52.822;6.860;2022-12-18T06:16:21;-5.50;99.90
55173;DHT22;41061;52.822;6.860;2022-12-18T06:18:47;-5.50;99.90
55173;DHT22;41061;52.822;6.860;2022-12-18T06:21:13;-5.60;99.90
55173;DHT22;41061;52.822;6.860;2022-12-18T06:23:38;-5.60;99.90
55173;DHT22;41061;52.822;6.860;2022-12-18T06:26:09;-5.60;99.90
55173;DHT22;41061;52.822;6.860;2022-12-18T06:28:36;-5.60;99.90
55173;DHT22;41061;52.822;6.860;2022-12-18T06:31:04;-5.70;99.90
55173;DHT22;41061;52.822;6.860;2022-12-18T06:33:30;-5.70;99.90
55173;DHT22;41061;52.822;6.860;2022-12-18T06:36:04;-5.70;99.90
55173;DHT22;41061;52.822;6.860;2022-12-18T06:38:32;-5.70;99.90
55173;DHT22;41061;52.822;6.860;2022-12-18T06:40:58;-5.70;99.90
55173;DHT22;41061;52.822;6.860;2022-12-18T06:43:24;-5.60;99.90
55173;DHT22;41061;52.822;6.860;2022-12-18T06:45:50;-5.70;99.90
55173;DHT22;41061;52.822;6.860;2022-12-18T06:48:21;-5.70;99.90
55173;DHT22;41061;52.822;6.860;2022-12-18T06:50:47;-5.60;99.90
55173;DHT22;41061;52.822;6.860;2022-12-18T06:53:13;-5.60;99.90
55173;DHT22;41061;52.822;6.860;2022-12-18T06:55:39;-5.60;99.90
55173;DHT22;41061;52.822;6.860;2022-12-18T06:58:05;-5.60;99.90
55173;DHT22;41061;52.822;6.860;2022-12-18T07:00:30;-5.70;99.90
55173;DHT22;41061;52.822;6.860;2022-12-18T07:02:56;-5.60;99.90
55173;DHT22;41061;52.822;6.860;2022-12-18T07:05:22;-5.70;99.90
55173;DHT22;41061;52.822;6.860;2022-12-18T07:07:48;-5.70;99.90
55173;DHT22;41061;52.822;6.860;2022-12-18T07:10:14;-5.70;99.90
55173;DHT22;41061;52.822;6.860;2022-12-18T07:12:39;-5.70;99.90
55173;DHT22;41061;52.822;6.860;2022-12-18T07:15:05;-5.70;99.90
55173;DHT22;41061;52.822;6.860;2022-12-18T07:17:31;-5.70;99.90
55173;DHT22;41061;52.822;6.860;2022-12-18T07:19:57;-5.70;99.90
55173;DHT22;41061;52.822;6.860;2022-12-18T07:22:25;-5.70;99.90
55173;DHT22;41061;52.822;6.860;2022-12-18T07:24:51;-5.70;99.90
55173;DHT22;41061;52.822;6.860;2022-12-18T07:27:17;-5.70;99.90
55173;DHT22;41061;52.822;6.860;2022-12-18T07:29:42;-5.70;99.90
55173;DHT22;41061;52.822;6.860;2022-12-18T07:32:08;-5.70;99.90
55173;DHT22;41061;52.822;6.860;2022-12-18T07:34:34;-5.70;99.90
55173;DHT22;41061;52.822;6.860;2022-12-18T07:37:00;-5.70;99.90
55173;DHT22;41061;52.822;6.860;2022-12-18T07:39:26;-5.70;99.90
55173;DHT22;41061;52.822;6.860;2022-12-18T07:41:52;-5.60;99.90
55173;DHT22;41061;52.822;6.860;2022-12-18T07:44:36;-5.60;99.90
55173;DHT22;41061;52.822;6.860;2022-12-18T07:47:02;-5.60;99.90
55173;DHT22;41061;52.822;6.860;2022-12-18T07:49:28;-5.60;99.90
55173;DHT22;41061;52.822;6.860;2022-12-18T07:51:55;-5.60;99.90
55173;DHT22;41061;52.822;6.860;2022-12-18T07:54:22;-5.50;99.90
55173;DHT22;41061;52.822;6.860;2022-12-18T07:56:48;-5.50;99.90
55173;DHT22;41061;52.822;6.860;2022-12-18T07:59:14;-5.40;99.90
55173;DHT22;41061;52.822;6.860;2022-12-18T08:01:40;-5.30;99.90
55173;DHT22;41061;52.822;6.860;2022-12-18T08:04:05;-5.30;99.90
55173;DHT22;41061;52.822;6.860;2022-12-18T08:06:31;-5.30;99.90
55173;DHT22;41061;52.822;6.860;2022-12-18T08:08:57;-5.20;99.90
55173;DHT22;41061;52.822;6.860;2022-12-18T08:11:24;-5.10;99.90
55173;DHT22;41061;52.822;6.860;2022-12-18T08:13:51;-5.10;99.90
55173;DHT22;41061;52.822;6.860;2022-12-18T08:16:17;-5.00;99.90
55173;DHT22;41061;52.822;6.860;2022-12-18T08:18:43;-4.90;99.90
55173;DHT22;41061;52.822;6.860;2022-12-18T08:21:17;-4.80;99.90
55173;DHT22;41061;52.822;6.860;2022-12-18T08:23:44;-4.70;99.90
55173;DHT22;41061;52.822;6.860;2022-12-18T08:26:11;-4.70;99.90
55173;DHT22;41061;52.822;6.860;2022-12-18T08:28:37;-4.60;99.90
55173;DHT22;41061;52.822;6.860;2022-12-18T08:31:03;-4.50;99.90
55173;DHT22;41061;52.822;6.860;2022-12-18T08:33:29;-4.50;99.90
55173;DHT22;41061;52.822;6.860;2022-12-18T08:35:55;-4.40;99.90
55173;DHT22;41061;52.822;6.860;2022-12-18T08:38:20;-4.30;99.90
55173;DHT22;41061;52.822;6.860;2022-12-18T08:40:47;-4.20;99.90
55173;DHT22;41061;52.822;6.860;2022-12-18T08:43:12;-4.20;99.90
55173;DHT22;41061;52.822;6.860;2022-12-18T08:45:56;-4.00;99.90
55173;DHT22;41061;52.822;6.860;2022-12-18T08:48:22;-4.00;99.90
55173;DHT22;41061;52.822;6.860;2022-12-18T08:50:58;-3.90;99.90
55173;DHT22;41061;52.822;6.860;2022-12-18T08:53:25;-3.90;99.90
55173;DHT22;41061;52.822;6.860;2022-12-18T08:55:52;-3.80;99.90
55173;DHT22;41061;52.822;6.860;2022-12-18T08:58:17;-3.60;99.90
55173;DHT22;41061;52.822;6.860;2022-12-18T09:00:43;-3.60;99.90
55173;DHT22;41061;52.822;6.860;2022-12-18T09:03:17;-3.60;99.90
55173;DHT22;41061;52.822;6.860;2022-12-18T09:05:43;-3.50;99.90
55173;DHT22;41061;52.822;6.860;2022-12-18T09:08:10;-3.50;99.90
55173;DHT22;41061;52.822;6.860;2022-12-18T09:10:47;-3.40;99.90
55173;DHT22;41061;52.822;6.860;2022-12-18T09:13:13;-3.30;99.90
55173;DHT22;41061;52.822;6.860;2022-12-18T09:15:45;-3.20;99.90
55173;DHT22;41061;52.822;6.860;2022-12-18T09:18:12;-3.20;99.90
55173;DHT22;41061;52.822;6.860;2022-12-18T09:20:38;-3.10;99.90
55173;DHT22;41061;52.822;6.860;2022-12-18T09:23:05;-3.10;99.90
55173;DHT22;41061;52.822;6.860;2022-12-18T09:25:32;-3.00;99.90
55173;DHT22;41061;52.822;6.860;2022-12-18T09:28:24;-3.00;99.90
55173;DHT22;41061;52.822;6.860;2022-12-18T09:30:50;-2.90;99.90
55173;DHT22;41061;52.822;6.860;2022-12-18T09:33:16;-2.80;99.90
55173;DHT22;41061;52.822;6.860;2022-12-18T09:35:43;-2.80;99.90
55173;DHT22;41061;52.822;6.860;2022-12-18T09:38:18;-2.70;99.90
55173;DHT22;41061;52.822;6.860;2022-12-18T09:40:51;-2.60;99.90
55173;DHT22;41061;52.822;6.860;2022-12-18T09:43:22;-2.50;99.90
55173;DHT22;41061;52.822;6.860;2022-12-18T09:48:34;-2.30;99.90
55173;DHT22;41061;52.822;6.860;2022-12-18T09:51:06;-2.30;99.90
55173;DHT22;41061;52.822;6.860;2022-12-18T09:53:37;-2.20;99.90
55173;DHT22;41061;52.822;6.860;2022-12-18T09:56:04;-2.10;99.90
55173;DHT22;41061;52.822;6.860;2022-12-18T09:58:44;-2.00;99.90
55173;DHT22;41061;52.822;6.860;2022-12-18T10:01:15;-1.90;99.90
55173;DHT22;41061;52.822;6.860;2022-12-18T10:03:42;-1.90;99.90
55173;DHT22;41061;52.822;6.860;2022-12-18T10:06:26;-1.80;99.90
55173;DHT22;41061;52.822;6.860;2022-12-18T10:14:26;-1.60;99.90
55173;DHT22;41061;52.822;6.860;2022-12-18T10:20:10;-1.50;99.90
55173;DHT22;41061;52.822;6.860;2022-12-18T10:22:58;-1.40;99.90
55173;DHT22;41061;52.822;6.860;2022-12-18T10:28:15;-1.30;99.90
55173;DHT22;41061;52.822;6.860;2022-12-18T10:30:43;-1.30;99.90
55173;DHT22;41061;52.822;6.860;2022-12-18T10:33:18;-1.30;99.90
55173;DHT22;41061;52.822;6.860;2022-12-18T10:35:45;-1.40;99.90
55173;DHT22;41061;52.822;6.860;2022-12-18T10:41:06;-1.50;99.90
55173;DHT22;41061;52.822;6.860;2022-12-18T10:43:38;-1.50;99.90
55173;DHT22;41061;52.822;6.860;2022-12-18T10:51:07;-1.50;99.90
55173;DHT22;41061;52.822;6.860;2022-12-18T10:53:36;-1.50;99.90
55173;DHT22;41061;52.822;6.860;2022-12-18T10:56:04;-1.50;99.90
55173;DHT22;41061;52.822;6.860;2022-12-18T10:58:36;-1.40;99.90
55173;DHT22;41061;52.822;6.860;2022-12-18T11:01:17;-1.40;99.90
55173;DHT22;41061;52.822;6.860;2022-12-18T11:03:45;-1.40;99.90
55173;DHT22;41061;52.822;6.860;2022-12-18T11:06:14;-1.40;99.90
55173;DHT22;41061;52.822;6.860;2022-12-18T11:08:42;-1.30;99.90
55173;DHT22;41061;52.822;6.860;2022-12-18T11:11:21;-1.30;99.90
55173;DHT22;41061;52.822;6.860;2022-12-18T11:14:17;-1.20;99.90
55173;DHT22;41061;52.822;6.860;2022-12-18T11:16:47;-1.20;99.90
55173;DHT22;41061;52.822;6.860;2022-12-18T11:21:48;-1.20;99.90
55173;DHT22;41061;52.822;6.860;2022-12-18T11:24:33;-1.20;99.90
55173;DHT22;41061;52.822;6.860;2022-12-18T11:27:02;-1.20;99.90
55173;DHT22;41061;52.822;6.860;2022-12-18T11:29:39;-1.20;99.90
55173;DHT22;41061;52.822;6.860;2022-12-18T11:34:59;-1.20;99.90
55173;DHT22;41061;52.822;6.860;2022-12-18T11:37:27;-1.10;99.90
55173;DHT22;41061;52.822;6.860;2022-12-18T11:40:14;-1.10;99.90
55173;DHT22;41061;52.822;6.860;2022-12-18T11:45:29;-1.00;99.90
55173;DHT22;41061;52.822;6.860;2022-12-18T11:50:51;-1.00;99.90
55173;DHT22;41061;52.822;6.860;2022-12-18T11:53:18;-0.90;99.90
55173;DHT22;41061;52.822;6.860;2022-12-18T11:56:00;-0.90;99.90
55173;DHT22;41061;52.822;6.860;2022-12-18T12:04:15;-0.90;99.90
55173;DHT22;41061;52.822;6.860;2022-12-18T12:09:32;-0.90;99.90
55173;DHT22;41061;52.822;6.860;2022-12-18T12:23:22;-0.80;99.90
55173;DHT22;41061;52.822;6.860;2022-12-18T12:26:28;-0.70;99.90
55173;DHT22;41061;52.822;6.860;2022-12-18T12:39:38;-0.70;99.90
55173;DHT22;41061;52.822;6.860;2022-12-18T12:42:15;-0.70;99.90
55173;DHT22;41061;52.822;6.860;2022-12-18T12:45:05;-0.70;99.90
55173;DHT22;41061;52.822;6.860;2022-12-18T12:47:36;-0.70;99.90
55173;DHT22;41061;52.822;6.860;2022-12-18T12:50:06;-0.70;99.90
55173;DHT22;41061;52.822;6.860;2022-12-18T12:52:43;-0.70;99.90
55173;DHT22;41061;52.822;6.860;2022-12-18T12:55:24;-0.70;99.90
55173;DHT22;41061;52.822;6.860;2022-12-18T13:01:07;-0.60;99.90
55173;DHT22;41061;52.822;6.860;2022-12-18T13:03:51;-0.50;99.90
55173;DHT22;41061;52.822;6.860;2022-12-18T13:06:30;-0.50;99.90
55173;DHT22;41061;52.822;6.860;2022-12-18T13:09:00;-0.50;99.90
55173;DHT22;41061;52.822;6.860;2022-12-18T13:11:31;-0.50;99.90
55173;DHT22;41061;52.822;6.860;2022-12-18T13:19:42;-0.50;99.90
55173;DHT22;41061;52.822;6.860;2022-12-18T13:22:30;-0.40;99.90
55173;DHT22;41061;52.822;6.860;2022-12-18T13:24:57;-0.30;99.90
55173;DHT22;41061;52.822;6.860;2022-12-18T13:38:21;-0.40;99.90
55173;DHT22;41061;52.822;6.860;2022-12-18T13:48:33;-0.40;99.90
55173;DHT22;41061;52.822;6.860;2022-12-18T13:56:00;-0.30;99.90
55173;DHT22;41061;52.822;6.860;2022-12-18T13:58:27;-0.30;99.90
55173;DHT22;41061;52.822;6.860;2022-12-18T14:00:52;-0.40;99.90
55173;DHT22;41061;52.822;6.860;2022-12-18T14:03:34;-0.40;99.90
55173;DHT22;41061;52.822;6.860;2022-12-18T14:06:02;-0.40;99.90
55173;DHT22;41061;52.822;6.860;2022-12-18T14:08:37;-0.50;99.90
55173;DHT22;41061;52.822;6.860;2022-12-18T14:11:04;-0.50;99.90
55173;DHT22;41061;52.822;6.860;2022-12-18T14:13:40;-0.50;99.90
55173;DHT22;41061;52.822;6.860;2022-12-18T14:16:06;-0.50;99.90
55173;DHT22;41061;52.822;6.860;2022-12-18T14:18:50;-0.50;99.90
55173;DHT22;41061;52.822;6.860;2022-12-18T14:24:02;-0.60;99.90
55173;DHT22;41061;52.822;6.860;2022-12-18T14:26:30;-0.60;99.90
55173;DHT22;41061;52.822;6.860;2022-12-18T14:29:14;-0.70;99.90
55173;DHT22;41061;52.822;6.860;2022-12-18T14:31:42;-0.70;99.90
55173;DHT22;41061;52.822;6.860;2022-12-18T14:34:17;-0.70;99.90
55173;DHT22;41061;52.822;6.860;2022-12-18T14:36:54;-0.70;99.90
55173;DHT22;41061;52.822;6.860;2022-12-18T14:39:22;-0.70;99.90
55173;DHT22;41061;52.822;6.860;2022-12-18T14:41:49;-0.80;99.90
55173;DHT22;41061;52.822;6.860;2022-12-18T14:44:15;-0.80;99.90
55173;DHT22;41061;52.822;6.860;2022-12-18T14:46:45;-0.80;99.90
55173;DHT22;41061;52.822;6.860;2022-12-18T14:49:29;-0.80;99.90
55173;DHT22;41061;52.822;6.860;2022-12-18T14:51:59;-0.70;99.90
55173;DHT22;41061;52.822;6.860;2022-12-18T14:54:26;-0.70;99.90
55173;DHT22;41061;52.822;6.860;2022-12-18T14:57:00;-0.80;99.90
55173;DHT22;41061;52.822;6.860;2022-12-18T14:59:28;-0.80;99.90
55173;DHT22;41061;52.822;6.860;2022-12-18T15:02:19;-0.90;99.90
55173;DHT22;41061;52.822;6.860;2022-12-18T15:04:46;-0.90;99.90
55173;DHT22;41061;52.822;6.860;2022-12-18T15:07:13;-0.90;99.90
55173;DHT22;41061;52.822;6.860;2022-12-18T15:09:46;-0.90;99.90
55173;DHT22;41061;52.822;6.860;2022-12-18T15:14:59;-0.90;99.90
55173;DHT22;41061;52.822;6.860;2022-12-18T15:17:25;-1.00;99.90
55173;DHT22;41061;52.822;6.860;2022-12-18T15:19:53;-1.00;99.90
55173;DHT22;41061;52.822;6.860;2022-12-18T15:22:29;-1.00;99.90
55173;DHT22;41061;52.822;6.860;2022-12-18T15:24:56;-1.00;99.90
55173;DHT22;41061;52.822;6.860;2022-12-18T15:27:32;-1.10;99.90
55173;DHT22;41061;52.822;6.860;2022-12-18T15:32:41;-1.10;99.90
55173;DHT22;41061;52.822;6.860;2022-12-18T15:37:39;-1.00;99.90
55173;DHT22;41061;52.822;6.860;2022-12-18T15:40:06;-1.10;99.90
55173;DHT22;41061;52.822;6.860;2022-12-18T15:42:32;-1.10;99.90
55173;DHT22;41061;52.822;6.860;2022-12-18T15:45:17;-1.10;99.90
55173;DHT22;41061;52.822;6.860;2022-12-18T15:47:42;-1.10;99.90
55173;DHT22;41061;52.822;6.860;2022-12-18T15:50:08;-1.10;99.90
55173;DHT22;41061;52.822;6.860;2022-12-18T15:52:43;-1.00;99.90
55173;DHT22;41061;52.822;6.860;2022-12-18T15:55:13;-1.00;99.90
55173;DHT22;41061;52.822;6.860;2022-12-18T15:57:58;-1.10;99.90
55173;DHT22;41061;52.822;6.860;2022-12-18T16:00:23;-1.00;99.90
55173;DHT22;41061;52.822;6.860;2022-12-18T16:02:50;-1.00;99.90
55173;DHT22;41061;52.822;6.860;2022-12-18T16:05:17;-1.00;99.90
55173;DHT22;41061;52.822;6.860;2022-12-18T16:07:44;-1.00;99.90
55173;DHT22;41061;52.822;6.860;2022-12-18T16:10:09;-1.00;99.90
55173;DHT22;41061;52.822;6.860;2022-12-18T16:12:35;-1.00;99.90
55173;DHT22;41061;52.822;6.860;2022-12-18T16:15:02;-1.00;99.90
55173;DHT22;41061;52.822;6.860;2022-12-18T16:17:28;-1.00;99.90
55173;DHT22;41061;52.822;6.860;2022-12-18T16:19:54;-1.00;99.90
55173;DHT22;41061;52.822;6.860;2022-12-18T16:22:23;-1.00;99.90
55173;DHT22;41061;52.822;6.860;2022-12-18T16:24:50;-0.90;99.90
55173;DHT22;41061;52.822;6.860;2022-12-18T16:27:17;-0.90;99.90
55173;DHT22;41061;52.822;6.860;2022-12-18T16:29:43;-0.90;99.90
55173;DHT22;41061;52.822;6.860;2022-12-18T16:32:13;-0.90;99.90
55173;DHT22;41061;52.822;6.860;2022-12-18T16:34:39;-0.90;99.90
55173;DHT22;41061;52.822;6.860;2022-12-18T16:37:07;-0.90;99.90
55173;DHT22;41061;52.822;6.860;2022-12-18T16:39:34;-0.90;99.90
55173;DHT22;41061;52.822;6.860;2022-12-18T16:42:13;-0.90;99.90
55173;DHT22;41061;52.822;6.860;2022-12-18T16:44:40;-0.90;99.90
55173;DHT22;41061;52.822;6.860;2022-12-18T16:47:06;-0.90;99.90
55173;DHT22;41061;52.822;6.860;2022-12-18T16:49:32;-0.90;99.90
55173;DHT22;41061;52.822;6.860;2022-12-18T16:51:58;-0.90;99.90
55173;DHT22;41061;52.822;6.860;2022-12-18T16:54:24;-0.90;99.90
55173;DHT22;41061;52.822;6.860;2022-12-18T16:56:51;-0.90;99.90
55173;DHT22;41061;52.822;6.860;2022-12-18T16:59:17;-0.90;99.90
55173;DHT22;41061;52.822;6.860;2022-12-18T17:01:43;-0.90;99.90
55173;DHT22;41061;52.822;6.860;2022-12-18T17:04:09;-0.90;99.90
55173;DHT22;41061;52.822;6.860;2022-12-18T17:06:39;-0.90;99.90
55173;DHT22;41061;52.822;6.860;2022-12-18T17:09:09;-0.80;99.90
55173;DHT22;41061;52.822;6.860;2022-12-18T17:11:35;-0.80;99.90
55173;DHT22;41061;52.822;6.860;2022-12-18T17:14:14;-0.80;99.90
55173;DHT22;41061;52.822;6.860;2022-12-18T17:16:40;-0.80;99.90
55173;DHT22;41061;52.822;6.860;2022-12-18T17:19:06;-0.80;99.90
55173;DHT22;41061;52.822;6.860;2022-12-18T17:21:32;-0.80;99.90
55173;DHT22;41061;52.822;6.860;2022-12-18T17:24:01;-0.80;99.90
55173;DHT22;41061;52.822;6.860;2022-12-18T17:26:28;-0.80;99.90
55173;DHT22;41061;52.822;6.860;2022-12-18T17:28:56;-0.80;99.90
55173;DHT22;41061;52.822;6.860;2022-12-18T17:31:24;-0.80;99.90
55173;DHT22;41061;52.822;6.860;2022-12-18T17:33:50;-0.80;99.90
55173;DHT22;41061;52.822;6.860;2022-12-18T17:36:18;-0.80;99.90
55173;DHT22;41061;52.822;6.860;2022-12-18T17:38:53;-0.70;99.90
55173;DHT22;41061;52.822;6.860;2022-12-18T17:41:20;-0.70;99.90
55173;DHT22;41061;52.822;6.860;2022-12-18T17:43:52;-0.70;99.90
55173;DHT22;41061;52.822;6.860;2022-12-18T17:46:18;-0.70;99.90
55173;DHT22;41061;52.822;6.860;2022-12-18T17:48:44;-0.60;99.90
55173;DHT22;41061;52.822;6.860;2022-12-18T17:51:11;-0.60;99.90
55173;DHT22;41061;52.822;6.860;2022-12-18T17:53:37;-0.60;99.90